sensor_id;sensor_type;location;lat;lon;timestamp;temperature;humidity
30473;DHT22;17263;48.160;11.452;2022-09-03T00:08:29;14.90;99.90
30473;DHT22;17263;48.160;11.452;2022-09-03T00:11:23;14.90;99.90
30473;DHT22;17263;48.160;11.452;2022-09-03T00:14:24;14.90;99.90
30473;DHT22;17263;48.160;11.452;2022-09-03T00:17:21;14.90;99.90
30473;DHT22;17263;48.160;11.452;2022-09-03T00:20:17;14.90;99.90
30473;DHT22;17263;48.160;11.452;2022-09-03T00:23:07;14.90;99.90
30473;DHT22;17263;48.160;11.452;2022-09-03T00:29:11;14.80;99.90
30473;DHT22;17263;48.160;11.452;2022-09-03T00:32:04;14.80;99.90
30473;DHT22;17263;48.160;11.452;2022-09-03T00:34:56;14.80;99.90
30473;DHT22;17263;48.160;11.452;2022-09-03T00:37:45;14.80;99.90
30473;DHT22;17263;48.160;11.452;2022-09-03T00:46:58;14.70;99.90
30473;DHT22;17263;48.160;11.452;2022-09-03T00:53:27;14.70;99.90
30473;DHT22;17263;48.160;11.452;2022-09-03T00:59:51;14.60;99.90
30473;DHT22;17263;48.160;11.452;2022-09-03T01:03:02;14.60;99.90
30473;DHT22;17263;48.160;11.452;2022-09-03T01:06:12;14.60;99.90
30473;DHT22;17263;48.160;11.452;2022-09-03T01:09:10;14.60;99.90
30473;DHT22;17263;48.160;11.452;2022-09-03T01:12:16;14.60;99.90
30473;DHT22;17263;48.160;11.452;2022-09-03T01:18:13;14.50;99.90
30473;DHT22;17263;48.160;11.452;2022-09-03T01:24:34;14.40;99.90
30473;DHT22;17263;48.160;11.452;2022-09-03T01:28:15;14.30;99.90
30473;DHT22;17263;48.160;11.452;2022-09-03T01:46:45;14.00;99.90
30473;DHT22;17263;48.160;11.452;2022-09-03T01:49:41;13.90;99.90
30473;DHT22;17263;48.160;11.452;2022-09-03T01:52:39;13.90;99.90
30473;DHT22;17263;48.160;11.452;2022-09-03T01:58:35;13.80;99.90
30473;DHT22;17263;48.160;11.452;2022-09-03T02:01:29;13.80;99.90
30473;DHT22;17263;48.160;11.452;2022-09-03T02:04:20;13.80;99.90
30473;DHT22;17263;48.160;11.452;2022-09-03T02:07:08;13.70;99.90
30473;DHT22;17263;48.160;11.452;2022-09-03T02:09:54;13.70;99.90
30473;DHT22;17263;48.160;11.452;2022-09-03T02:12:45;13.70;99.90
30473;DHT22;17263;48.160;11.452;2022-09-03T02:15:37;13.70;99.90
30473;DHT22;17263;48.160;11.452;2022-09-03T02:18:29;13.60;99.90
30473;DHT22;17263;48.160;11.452;2022-09-03T02:21:19;13.60;99.90
30473;DHT22;17263;48.160;11.452;2022-09-03T02:24:07;13.60;99.90
30473;DHT22;17263;48.160;11.452;2022-09-03T02:26:54;13.50;99.90
30473;DHT22;17263;48.160;11.452;2022-09-03T02:29:41;13.50;99.90
30473;DHT22;17263;48.160;11.452;2022-09-03T02:32:27;13.50;99.90
30473;DHT22;17263;48.160;11.452;2022-09-03T02:35:14;13.50;99.90
30473;DHT22;17263;48.160;11.452;2022-09-03T02:38:11;13.40;99.90
30473;DHT22;17263;48.160;11.452;2022-09-03T02:40:58;13.40;99.90
30473;DHT22;17263;48.160;11.452;2022-09-03T02:43:51;13.40;99.90
30473;DHT22;17263;48.160;11.452;2022-09-03T02:49:28;13.30;99.90
30473;DHT22;17263;48.160;11.452;2022-09-03T02:52:15;13.30;99.90
30473;DHT22;17263;48.160;11.452;2022-09-03T02:55:02;13.30;99.90
30473;DHT22;17263;48.160;11.452;2022-09-03T02:57:49;13.30;99.90
30473;DHT22;17263;48.160;11.452;2022-09-03T03:00:35;13.20;99.90
30473;DHT22;17263;48.160;11.452;2022-09-03T03:03:22;13.20;99.90
30473;DHT22;17263;48.160;11.452;2022-09-03T03:06:09;13.10;99.90
30473;DHT22;17263;48.160;11.452;2022-09-03T03:08:55;13.00;99.90
30473;DHT22;17263;48.160;11.452;2022-09-03T03:11:42;13.10;99.90
30473;DHT22;17263;48.160;11.452;2022-09-03T03:14:29;13.00;99.90
30473;DHT22;17263;48.160;11.452;2022-09-03T03:17:15;13.00;99.90
30473;DHT22;17263;48.160;11.452;2022-09-03T03:20:02;13.00;99.90
30473;DHT22;17263;48.160;11.452;2022-09-03T03:22:48;13.00;99.90
30473;DHT22;17263;48.160;11.452;2022-09-03T03:25:37;12.90;99.90
30473;DHT22;17263;48.160;11.452;2022-09-03T03:28:23;12.90;99.90
30473;DHT22;17263;48.160;11.452;2022-09-03T03:31:10;12.90;99.90
30473;DHT22;17263;48.160;11.452;2022-09-03T03:33:59;12.90;99.90
30473;DHT22;17263;48.160;11.452;2022-09-03T03:36:46;12.90;99.90
30473;DHT22;17263;48.160;11.452;2022-09-03T03:39:32;12.80;99.90
30473;DHT22;17263;48.160;11.452;2022-09-03T03:42:18;12.80;99.90
30473;DHT22;17263;48.160;11.452;2022-09-03T03:45:05;12.80;99.90
30473;DHT22;17263;48.160;11.452;2022-09-03T03:47:56;12.80;99.90
30473;DHT22;17263;48.160;11.452;2022-09-03T03:50:43;12.80;99.90
30473;DHT22;17263;48.160;11.452;2022-09-03T03:53:30;12.80;99.90
30473;DHT22;17263;48.160;11.452;2022-09-03T03:56:16;12.70;99.90
30473;DHT22;17263;48.160;11.452;2022-09-03T03:59:03;12.70;99.90
30473;DHT22;17263;48.160;11.452;2022-09-03T04:01:50;12.60;99.90
30473;DHT22;17263;48.160;11.452;2022-09-03T04:04:36;12.60;99.90
30473;DHT22;17263;48.160;11.452;2022-09-03T04:07:22;12.60;99.90
30473;DHT22;17263;48.160;11.452;2022-09-03T04:10:09;12.70;99.90
30473;DHT22;17263;48.160;11.452;2022-09-03T04:12:55;12.70;99.90
30473;DHT22;17263;48.160;11.452;2022-09-03T04:15:41;12.70;99.90
30473;DHT22;17263;48.160;11.452;2022-09-03T04:18:29;12.70;99.90
30473;DHT22;17263;48.160;11.452;2022-09-03T04:21:21;12.70;99.90
30473;DHT22;17263;48.160;11.452;2022-09-03T04:24:07;12.60;99.90
30473;DHT22;17263;48.160;11.452;2022-09-03T04:26:53;12.60;99.90
30473;DHT22;17263;48.160;11.452;2022-09-03T04:29:40;12.70;99.90
30473;DHT22;17263;48.160;11.452;2022-09-03T04:32:27;12.80;99.90
30473;DHT22;17263;48.160;11.452;2022-09-03T04:35:31;12.80;99.90
30473;DHT22;17263;48.160;11.452;2022-09-03T04:38:18;12.90;99.90
30473;DHT22;17263;48.160;11.452;2022-09-03T04:41:06;13.00;99.90
30473;DHT22;17263;48.160;11.452;2022-09-03T04:43:54;13.00;99.90
30473;DHT22;17263;48.160;11.452;2022-09-03T04:46:41;13.00;99.90
30473;DHT22;17263;48.160;11.452;2022-09-03T04:49:27;13.10;99.90
30473;DHT22;17263;48.160;11.452;2022-09-03T04:52:13;13.20;99.90
30473;DHT22;17263;48.160;11.452;2022-09-03T04:54:59;13.30;99.90
30473;DHT22;17263;48.160;11.452;2022-09-03T04:57:47;13.30;99.90
30473;DHT22;17263;48.160;11.452;2022-09-03T05:00:35;13.40;99.90
30473;DHT22;17263;48.160;11.452;2022-09-03T05:03:22;13.40;99.90
30473;DHT22;17263;48.160;11.452;2022-09-03T05:06:08;13.50;99.90
30473;DHT22;17263;48.160;11.452;2022-09-03T05:08:55;13.50;99.90
30473;DHT22;17263;48.160;11.452;2022-09-03T05:11:41;13.60;99.90
30473;DHT22;17263;48.160;11.452;2022-09-03T05:14:27;13.60;99.90
30473;DHT22;17263;48.160;11.452;2022-09-03T05:17:14;13.70;99.90
30473;DHT22;17263;48.160;11.452;2022-09-03T05:20:00;13.70;99.90
30473;DHT22;17263;48.160;11.452;2022-09-03T05:22:46;13.70;99.90
30473;DHT22;17263;48.160;11.452;2022-09-03T05:25:33;13.80;99.90
30473;DHT22;17263;48.160;11.452;2022-09-03T05:28:19;13.90;99.90
30473;DHT22;17263;48.160;11.452;2022-09-03T05:31:14;13.90;99.90
30473;DHT22;17263;48.160;11.452;2022-09-03T05:34:02;14.00;99.90
30473;DHT22;17263;48.160;11.452;2022-09-03T05:36:49;14.10;99.90
30473;DHT22;17263;48.160;11.452;2022-09-03T05:39:35;14.30;99.90
30473;DHT22;17263;48.160;11.452;2022-09-03T05:42:21;14.40;99.90
30473;DHT22;17263;48.160;11.452;2022-09-03T05:45:08;14.40;99.90
30473;DHT22;17263;48.160;11.452;2022-09-03T05:47:59;14.50;99.90
30473;DHT22;17263;48.160;11.452;2022-09-03T05:50:46;14.60;99.90
30473;DHT22;17263;48.160;11.452;2022-09-03T05:53:36;14.60;99.90
30473;DHT22;17263;48.160;11.452;2022-09-03T05:56:24;14.70;99.90
30473;DHT22;17263;48.160;11.452;2022-09-03T05:59:11;14.70;99.90
30473;DHT22;17263;48.160;11.452;2022-09-03T06:01:58;14.70;99.90
30473;DHT22;17263;48.160;11.452;2022-09-03T06:04:45;14.80;99.90
30473;DHT22;17263;48.160;11.452;2022-09-03T06:07:31;14.70;99.90
30473;DHT22;17263;48.160;11.452;2022-09-03T06:10:18;14.70;99.90
30473;DHT22;17263;48.160;11.452;2022-09-03T06:13:04;14.70;99.90
30473;DHT22;17263;48.160;11.452;2022-09-03T06:15:59;14.70;99.90
30473;DHT22;17263;48.160;11.452;2022-09-03T06:18:45;14.70;99.90
30473;DHT22;17263;48.160;11.452;2022-09-03T06:21:32;14.60;99.90
30473;DHT22;17263;48.160;11.452;2022-09-03T06:24:20;14.60;99.90
30473;DHT22;17263;48.160;11.452;2022-09-03T06:27:09;14.60;99.90
30473;DHT22;17263;48.160;11.452;2022-09-03T06:29:56;14.50;99.90
30473;DHT22;17263;48.160;11.452;2022-09-03T06:32:45;14.50;99.90
30473;DHT22;17263;48.160;11.452;2022-09-03T06:35:32;14.50;99.90
30473;DHT22;17263;48.160;11.452;2022-09-03T06:38:18;14.50;99.90
30473;DHT22;17263;48.160;11.452;2022-09-03T06:43:59;14.50;99.90
30473;DHT22;17263;48.160;11.452;2022-09-03T06:46:48;14.50;99.90
30473;DHT22;17263;48.160;11.452;2022-09-03T06:49:35;14.50;99.90
30473;DHT22;17263;48.160;11.452;2022-09-03T06:52:22;14.50;99.90
30473;DHT22;17263;48.160;11.452;2022-09-03T06:55:08;14.50;99.90
30473;DHT22;17263;48.160;11.452;2022-09-03T06:57:54;14.50;99.90
30473;DHT22;17263;48.160;11.452;2022-09-03T07:00:42;14.50;99.90
30473;DHT22;17263;48.160;11.452;2022-09-03T07:03:30;14.50;99.90
30473;DHT22;17263;48.160;11.452;2022-09-03T07:06:18;14.50;99.90
30473;DHT22;17263;48.160;11.452;2022-09-03T07:09:08;14.50;99.90
30473;DHT22;17263;48.160;11.452;2022-09-03T07:11:54;14.50;99.90
30473;DHT22;17263;48.160;11.452;2022-09-03T07:14:41;14.50;99.90
30473;DHT22;17263;48.160;11.452;2022-09-03T07:17:27;14.50;99.90
30473;DHT22;17263;48.160;11.452;2022-09-03T07:20:13;14.60;99.90
30473;DHT22;17263;48.160;11.452;2022-09-03T07:23:00;14.60;99.90
30473;DHT22;17263;48.160;11.452;2022-09-03T07:25:59;14.70;99.90
30473;DHT22;17263;48.160;11.452;2022-09-03T07:28:46;14.70;99.90
30473;DHT22;17263;48.160;11.452;2022-09-03T07:31:39;14.80;99.90
30473;DHT22;17263;48.160;11.452;2022-09-03T07:34:27;14.80;99.90
30473;DHT22;17263;48.160;11.452;2022-09-03T07:37:13;14.90;99.90
30473;DHT22;17263;48.160;11.452;2022-09-03T07:40:01;14.90;99.90
30473;DHT22;17263;48.160;11.452;2022-09-03T07:42:47;15.00;99.90
30473;DHT22;17263;48.160;11.452;2022-09-03T07:45:33;15.00;99.90
30473;DHT22;17263;48.160;11.452;2022-09-03T07:48:20;15.10;99.90
30473;DHT22;17263;48.160;11.452;2022-09-03T07:51:07;15.00;99.90
30473;DHT22;17263;48.160;11.452;2022-09-03T07:53:57;15.10;99.90
30473;DHT22;17263;48.160;11.452;2022-09-03T07:56:43;15.20;99.90
30473;DHT22;17263;48.160;11.452;2022-09-03T07:59:30;15.30;99.90
30473;DHT22;17263;48.160;11.452;2022-09-03T08:02:16;15.40;99.90
30473;DHT22;17263;48.160;11.452;2022-09-03T08:05:03;15.40;99.90
30473;DHT22;17263;48.160;11.452;2022-09-03T08:07:49;15.50;99.90
30473;DHT22;17263;48.160;11.452;2022-09-03T08:10:36;15.60;99.90
30473;DHT22;17263;48.160;11.452;2022-09-03T08:13:23;15.70;99.90
30473;DHT22;17263;48.160;11.452;2022-09-03T08:16:11;15.80;99.90
30473;DHT22;17263;48.160;11.452;2022-09-03T08:18:58;15.90;99.90
30473;DHT22;17263;48.160;11.452;2022-09-03T08:21:45;16.20;99.90
30473;DHT22;17263;48.160;11.452;2022-09-03T08:24:31;16.50;99.90
30473;DHT22;17263;48.160;11.452;2022-09-03T08:27:20;16.70;99.90
30473;DHT22;17263;48.160;11.452;2022-09-03T08:30:10;16.90;99.90
30473;DHT22;17263;48.160;11.452;2022-09-03T08:33:00;17.00;99.90
30473;DHT22;17263;48.160;11.452;2022-09-03T08:35:52;17.10;99.90
30473;DHT22;17263;48.160;11.452;2022-09-03T08:38:41;17.20;99.90
30473;DHT22;17263;48.160;11.452;2022-09-03T08:45:05;17.40;99.90
30473;DHT22;17263;48.160;11.452;2022-09-03T08:48:09;17.60;99.90
30473;DHT22;17263;48.160;11.452;2022-09-03T08:50:58;18.00;99.90
30473;DHT22;17263;48.160;11.452;2022-09-03T08:53:50;18.70;99.90
30473;DHT22;17263;48.160;11.452;2022-09-03T08:56:41;19.30;99.90
30473;DHT22;17263;48.160;11.452;2022-09-03T08:59:31;20.00;99.90
30473;DHT22;17263;48.160;11.452;2022-09-03T09:02:34;20.40;99.90
30473;DHT22;17263;48.160;11.452;2022-09-03T09:05:47;20.60;99.90
30473;DHT22;17263;48.160;11.452;2022-09-03T09:08:47;20.60;99.90
30473;DHT22;17263;48.160;11.452;2022-09-03T09:15:06;20.70;99.90
30473;DHT22;17263;48.160;11.452;2022-09-03T09:18:10;20.70;99.90
30473;DHT22;17263;48.160;11.452;2022-09-03T09:21:19;20.80;99.90
30473;DHT22;17263;48.160;11.452;2022-09-03T09:24:16;21.10;99.90
30473;DHT22;17263;48.160;11.452;2022-09-03T09:27:07;21.40;99.90
30473;DHT22;17263;48.160;11.452;2022-09-03T09:29:54;21.30;99.90
30473;DHT22;17263;48.160;11.452;2022-09-03T09:32:44;21.30;99.90
30473;DHT22;17263;48.160;11.452;2022-09-03T09:35:32;21.40;99.90
30473;DHT22;17263;48.160;11.452;2022-09-03T09:38:33;21.70;99.90
30473;DHT22;17263;48.160;11.452;2022-09-03T09:41:23;21.90;99.90
30473;DHT22;17263;48.160;11.452;2022-09-03T09:44:18;22.00;99.90
30473;DHT22;17263;48.160;11.452;2022-09-03T09:47:12;22.10;99.90
30473;DHT22;17263;48.160;11.452;2022-09-03T09:50:01;22.20;99.90
30473;DHT22;17263;48.160;11.452;2022-09-03T09:52:47;22.40;99.90
30473;DHT22;17263;48.160;11.452;2022-09-03T09:55:49;22.40;99.90
30473;DHT22;17263;48.160;11.452;2022-09-03T09:58:36;22.50;99.90
30473;DHT22;17263;48.160;11.452;2022-09-03T10:01:23;22.60;99.90
30473;DHT22;17263;48.160;11.452;2022-09-03T10:09:58;22.30;99.90
30473;DHT22;17263;48.160;11.452;2022-09-03T10:13:02;22.10;99.90
30473;DHT22;17263;48.160;11.452;2022-09-03T10:16:04;22.00;99.90
30473;DHT22;17263;48.160;11.452;2022-09-03T10:19:16;22.00;99.90
30473;DHT22;17263;48.160;11.452;2022-09-03T10:22:15;21.90;99.90
30473;DHT22;17263;48.160;11.452;2022-09-03T10:25:05;22.10;99.90
30473;DHT22;17263;48.160;11.452;2022-09-03T10:27:58;22.10;99.90
30473;DHT22;17263;48.160;11.452;2022-09-03T10:34:17;22.30;99.90
30473;DHT22;17263;48.160;11.452;2022-09-03T10:40:34;22.60;99.90
30473;DHT22;17263;48.160;11.452;2022-09-03T10:47:36;22.60;99.90
30473;DHT22;17263;48.160;11.452;2022-09-03T10:50:09;22.70;99.90
30473;DHT22;17263;48.160;11.452;2022-09-03T10:54:03;22.80;99.90
30473;DHT22;17263;48.160;11.452;2022-09-03T10:56:53;22.90;99.90
30473;DHT22;17263;48.160;11.452;2022-09-03T11:06:17;23.20;99.90
30473;DHT22;17263;48.160;11.452;2022-09-03T11:09:22;23.20;99.90
30473;DHT22;17263;48.160;11.452;2022-09-03T11:12:30;23.10;99.90
30473;DHT22;17263;48.160;11.452;2022-09-03T11:15:25;23.00;99.90
30473;DHT22;17263;48.160;11.452;2022-09-03T11:21:09;22.70;99.90
30473;DHT22;17263;48.160;11.452;2022-09-03T11:24:09;22.60;99.90
30473;DHT22;17263;48.160;11.452;2022-09-03T11:30:14;22.80;99.90
30473;DHT22;17263;48.160;11.452;2022-09-03T11:33:09;22.90;99.90
30473;DHT22;17263;48.160;11.452;2022-09-03T11:35:58;23.10;99.90
30473;DHT22;17263;48.160;11.452;2022-09-03T11:38:45;23.30;99.90
30473;DHT22;17263;48.160;11.452;2022-09-03T11:41:34;23.50;99.90
30473;DHT22;17263;48.160;11.452;2022-09-03T11:44:20;23.50;99.90
30473;DHT22;17263;48.160;11.452;2022-09-03T11:47:26;23.40;99.90
30473;DHT22;17263;48.160;11.452;2022-09-03T11:50:26;23.40;99.90
30473;DHT22;17263;48.160;11.452;2022-09-03T11:56:16;23.40;99.90
30473;DHT22;17263;48.160;11.452;2022-09-03T12:08:27;23.10;99.90
30473;DHT22;17263;48.160;11.452;2022-09-03T12:23:49;23.00;99.90
30473;DHT22;17263;48.160;11.452;2022-09-03T12:26:39;23.00;99.90
30473;DHT22;17263;48.160;11.452;2022-09-03T12:29:29;23.00;99.90
30473;DHT22;17263;48.160;11.452;2022-09-03T12:32:16;22.80;99.90
30473;DHT22;17263;48.160;11.452;2022-09-03T12:35:15;22.70;99.90
30473;DHT22;17263;48.160;11.452;2022-09-03T12:38:01;22.70;99.90
30473;DHT22;17263;48.160;11.452;2022-09-03T12:40:47;22.70;99.90
30473;DHT22;17263;48.160;11.452;2022-09-03T12:43:34;22.80;99.90
30473;DHT22;17263;48.160;11.452;2022-09-03T12:46:26;22.80;99.90
30473;DHT22;17263;48.160;11.452;2022-09-03T12:49:13;22.70;99.90
30473;DHT22;17263;48.160;11.452;2022-09-03T12:58:16;22.90;99.90
30473;DHT22;17263;48.160;11.452;2022-09-03T13:01:10;23.00;99.90
30473;DHT22;17263;48.160;11.452;2022-09-03T13:04:13;22.90;99.90
30473;DHT22;17263;48.160;11.452;2022-09-03T13:07:05;22.90;99.90
30473;DHT22;17263;48.160;11.452;2022-09-03T13:09:59;23.00;99.90
30473;DHT22;17263;48.160;11.452;2022-09-03T13:12:49;22.90;99.90
30473;DHT22;17263;48.160;11.452;2022-09-03T13:15:35;22.80;99.90
30473;DHT22;17263;48.160;11.452;2022-09-03T13:18:37;22.90;99.90
30473;DHT22;17263;48.160;11.452;2022-09-03T13:27:43;23.00;99.90
30473;DHT22;17263;48.160;11.452;2022-09-03T13:30:48;23.10;99.90
30473;DHT22;17263;48.160;11.452;2022-09-03T13:33:43;23.30;99.90
30473;DHT22;17263;48.160;11.452;2022-09-03T13:36:50;23.30;99.90
30473;DHT22;17263;48.160;11.452;2022-09-03T13:39:47;23.20;99.90
30473;DHT22;17263;48.160;11.452;2022-09-03T13:46:33;22.90;99.90
30473;DHT22;17263;48.160;11.452;2022-09-03T13:53:17;22.60;99.90
30473;DHT22;17263;48.160;11.452;2022-09-03T13:56:20;22.50;99.90
30473;DHT22;17263;48.160;11.452;2022-09-03T13:59:34;22.20;99.90
30473;DHT22;17263;48.160;11.452;2022-09-03T14:02:52;22.10;99.90
30473;DHT22;17263;48.160;11.452;2022-09-03T14:06:06;22.00;99.90
30473;DHT22;17263;48.160;11.452;2022-09-03T14:09:14;21.80;99.90
30473;DHT22;17263;48.160;11.452;2022-09-03T14:12:17;21.60;99.90
30473;DHT22;17263;48.160;11.452;2022-09-03T14:15:25;21.40;99.90
30473;DHT22;17263;48.160;11.452;2022-09-03T14:18:37;21.20;99.90
30473;DHT22;17263;48.160;11.452;2022-09-03T14:21:49;20.90;99.90
30473;DHT22;17263;48.160;11.452;2022-09-03T14:24:56;20.50;99.90
30473;DHT22;17263;48.160;11.452;2022-09-03T14:27:46;20.00;99.90
30473;DHT22;17263;48.160;11.452;2022-09-03T14:33:43;18.90;99.90
30473;DHT22;17263;48.160;11.452;2022-09-03T14:36:42;18.50;99.90
30473;DHT22;17263;48.160;11.452;2022-09-03T14:39:43;18.20;99.90
30473;DHT22;17263;48.160;11.452;2022-09-03T14:46:20;17.80;99.90
30473;DHT22;17263;48.160;11.452;2022-09-03T14:56:16;17.50;99.90
30473;DHT22;17263;48.160;11.452;2022-09-03T15:08:21;17.20;99.90
30473;DHT22;17263;48.160;11.452;2022-09-03T15:11:19;17.20;99.90
30473;DHT22;17263;48.160;11.452;2022-09-03T15:18:02;17.00;99.90
30473;DHT22;17263;48.160;11.452;2022-09-03T15:20:48;17.00;99.90
30473;DHT22;17263;48.160;11.452;2022-09-03T15:23:56;17.00;99.90
30473;DHT22;17263;48.160;11.452;2022-09-03T15:30:14;16.90;99.90
30473;DHT22;17263;48.160;11.452;2022-09-03T15:33:06;16.80;99.90
30473;DHT22;17263;48.160;11.452;2022-09-03T15:36:13;16.70;99.90
30473;DHT22;17263;48.160;11.452;2022-09-03T15:39:07;16.70;99.90
30473;DHT22;17263;48.160;11.452;2022-09-03T15:41:58;16.60;99.90
30473;DHT22;17263;48.160;11.452;2022-09-03T15:44:54;16.40;99.90
30473;DHT22;17263;48.160;11.452;2022-09-03T15:50:35;16.40;99.90
30473;DHT22;17263;48.160;11.452;2022-09-03T15:53:35;16.40;99.90
30473;DHT22;17263;48.160;11.452;2022-09-03T16:00:03;16.40;99.90
30473;DHT22;17263;48.160;11.452;2022-09-03T16:03:10;16.50;99.90
30473;DHT22;17263;48.160;11.452;2022-09-03T16:06:05;16.70;99.90
30473;DHT22;17263;48.160;11.452;2022-09-03T16:08:55;16.90;99.90
30473;DHT22;17263;48.160;11.452;2022-09-03T16:11:54;17.00;99.90
30473;DHT22;17263;48.160;11.452;2022-09-03T16:15:17;17.20;99.90
30473;DHT22;17263;48.160;11.452;2022-09-03T16:18:21;17.30;99.90
30473;DHT22;17263;48.160;11.452;2022-09-03T16:21:20;17.50;99.90
30473;DHT22;17263;48.160;11.452;2022-09-03T16:24:31;17.60;99.90
30473;DHT22;17263;48.160;11.452;2022-09-03T16:27:22;17.60;99.90
30473;DHT22;17263;48.160;11.452;2022-09-03T16:30:30;17.60;99.90
30473;DHT22;17263;48.160;11.452;2022-09-03T16:33:32;17.60;99.90
30473;DHT22;17263;48.160;11.452;2022-09-03T16:46:27;17.30;99.90
30473;DHT22;17263;48.160;11.452;2022-09-03T16:49:24;17.20;99.90
30473;DHT22;17263;48.160;11.452;2022-09-03T16:55:37;17.00;99.90
30473;DHT22;17263;48.160;11.452;2022-09-03T17:04:37;16.90;99.90
30473;DHT22;17263;48.160;11.452;2022-09-03T17:11:02;16.80;99.90
30473;DHT22;17263;48.160;11.452;2022-09-03T17:14:09;16.80;99.90
30473;DHT22;17263;48.160;11.452;2022-09-03T17:26:18;16.80;99.90
30473;DHT22;17263;48.160;11.452;2022-09-03T17:36:04;16.70;99.90
30473;DHT22;17263;48.160;11.452;2022-09-03T17:41:53;16.40;99.90
30473;DHT22;17263;48.160;11.452;2022-09-03T17:44:45;16.30;99.90
30473;DHT22;17263;48.160;11.452;2022-09-03T17:50:57;16.20;99.90
30473;DHT22;17263;48.160;11.452;2022-09-03T17:53:52;16.10;99.90
30473;DHT22;17263;48.160;11.452;2022-09-03T18:00:00;16.00;99.90
30473;DHT22;17263;48.160;11.452;2022-09-03T18:03:00;15.90;99.90
30473;DHT22;17263;48.160;11.452;2022-09-03T18:06:05;15.90;99.90
30473;DHT22;17263;48.160;11.452;2022-09-03T18:09:11;15.90;99.90
30473;DHT22;17263;48.160;11.452;2022-09-03T18:12:10;15.80;99.90
30473;DHT22;17263;48.160;11.452;2022-09-03T18:15:11;15.70;99.90
30473;DHT22;17263;48.160;11.452;2022-09-03T18:18:10;15.60;99.90
30473;DHT22;17263;48.160;11.452;2022-09-03T18:21:00;15.60;99.90
30473;DHT22;17263;48.160;11.452;2022-09-03T18:30:47;15.50;99.90
30473;DHT22;17263;48.160;11.452;2022-09-03T18:33:52;15.50;99.90
30473;DHT22;17263;48.160;11.452;2022-09-03T18:36:58;15.40;99.90
30473;DHT22;17263;48.160;11.452;2022-09-03T18:40:05;15.40;99.90
30473;DHT22;17263;48.160;11.452;2022-09-03T18:43:26;15.40;99.90
30473;DHT22;17263;48.160;11.452;2022-09-03T18:46:48;15.40;99.90
30473;DHT22;17263;48.160;11.452;2022-09-03T18:50:09;15.30;99.90
30473;DHT22;17263;48.160;11.452;2022-09-03T18:56:54;15.20;99.90
30473;DHT22;17263;48.160;11.452;2022-09-03T19:00:11;15.20;99.90
30473;DHT22;17263;48.160;11.452;2022-09-03T19:03:28;15.20;99.90
30473;DHT22;17263;48.160;11.452;2022-09-03T19:06:58;15.20;99.90
30473;DHT22;17263;48.160;11.452;2022-09-03T19:10:13;15.10;99.90
30473;DHT22;17263;48.160;11.452;2022-09-03T19:13:34;15.00;99.90
30473;DHT22;17263;48.160;11.452;2022-09-03T19:17:04;15.00;99.90
30473;DHT22;17263;48.160;11.452;2022-09-03T19:20:26;15.00;99.90
30473;DHT22;17263;48.160;11.452;2022-09-03T19:23:32;15.00;99.90
30473;DHT22;17263;48.160;11.452;2022-09-03T19:26:54;14.90;99.90
30473;DHT22;17263;48.160;11.452;2022-09-03T19:33:22;14.90;99.90
30473;DHT22;17263;48.160;11.452;2022-09-03T19:37:03;14.80;99.90
30473;DHT22;17263;48.160;11.452;2022-09-03T19:46:55;14.70;99.90
30473;DHT22;17263;48.160;11.452;2022-09-03T19:53:10;14.70;99.90
30473;DHT22;17263;48.160;11.452;2022-09-03T19:56:27;14.70;99.90
30473;DHT22;17263;48.160;11.452;2022-09-03T19:59:35;14.60;99.90
30473;DHT22;17263;48.160;11.452;2022-09-03T20:02:45;14.60;99.90
30473;DHT22;17263;48.160;11.452;2022-09-03T20:05:51;14.60;99.90
30473;DHT22;17263;48.160;11.452;2022-09-03T20:09:04;14.60;99.90
30473;DHT22;17263;48.160;11.452;2022-09-03T20:12:12;14.60;99.90
30473;DHT22;17263;48.160;11.452;2022-09-03T20:15:03;14.60;99.90
30473;DHT22;17263;48.160;11.452;2022-09-03T20:21:02;14.60;99.90
30473;DHT22;17263;48.160;11.452;2022-09-03T20:30:22;14.50;99.90
30473;DHT22;17263;48.160;11.452;2022-09-03T20:36:27;14.50;99.90
30473;DHT22;17263;48.160;11.452;2022-09-03T20:39:22;14.50;99.90
30473;DHT22;17263;48.160;11.452;2022-09-03T20:45:22;14.40;99.90
30473;DHT22;17263;48.160;11.452;2022-09-03T20:48:11;14.40;99.90
30473;DHT22;17263;48.160;11.452;2022-09-03T20:51:12;14.40;99.90
30473;DHT22;17263;48.160;11.452;2022-09-03T20:54:11;14.40;99.90
30473;DHT22;17263;48.160;11.452;2022-09-03T20:57:09;14.30;99.90
30473;DHT22;17263;48.160;11.452;2022-09-03T21:00:06;14.30;99.90
30473;DHT22;17263;48.160;11.452;2022-09-03T21:03:14;14.30;99.90
30473;DHT22;17263;48.160;11.452;2022-09-03T21:06:27;14.30;99.90
30473;DHT22;17263;48.160;11.452;2022-09-03T21:09:24;14.30;99.90
30473;DHT22;17263;48.160;11.452;2022-09-03T21:12:46;14.30;99.90
30473;DHT22;17263;48.160;11.452;2022-09-03T21:16:00;14.20;99.90
30473;DHT22;17263;48.160;11.452;2022-09-03T21:25:00;14.20;99.90
30473;DHT22;17263;48.160;11.452;2022-09-03T21:27:54;14.20;99.90
30473;DHT22;17263;48.160;11.452;2022-09-03T21:30:46;14.20;99.90
30473;DHT22;17263;48.160;11.452;2022-09-03T21:33:37;14.20;99.90
30473;DHT22;17263;48.160;11.452;2022-09-03T21:36:33;14.20;99.90
30473;DHT22;17263;48.160;11.452;2022-09-03T21:39:29;14.20;99.90
30473;DHT22;17263;48.160;11.452;2022-09-03T21:48:28;14.10;99.90
30473;DHT22;17263;48.160;11.452;2022-09-03T21:51:30;14.10;99.90
30473;DHT22;17263;48.160;11.452;2022-09-03T21:54:26;14.10;99.90
30473;DHT22;17263;48.160;11.452;2022-09-03T22:00:55;14.00;99.90
30473;DHT22;17263;48.160;11.452;2022-09-03T22:03:44;14.00;99.90
30473;DHT22;17263;48.160;11.452;2022-09-03T22:06:41;14.00;99.90
30473;DHT22;17263;48.160;11.452;2022-09-03T22:09:56;14.00;99.90
30473;DHT22;17263;48.160;11.452;2022-09-03T22:13:20;14.00;99.90
30473;DHT22;17263;48.160;11.452;2022-09-03T22:16:14;14.00;99.90
30473;DHT22;17263;48.160;11.452;2022-09-03T22:19:02;14.00;99.90
30473;DHT22;17263;48.160;11.452;2022-09-03T22:21:57;13.90;99.90
30473;DHT22;17263;48.160;11.452;2022-09-03T22:25:02;13.90;99.90
30473;DHT22;17263;48.160;11.452;2022-09-03T22:33:55;13.80;99.90
30473;DHT22;17263;48.160;11.452;2022-09-03T22:37:05;13.80;99.90
30473;DHT22;17263;48.160;11.452;2022-09-03T22:40:23;13.80;99.90
30473;DHT22;17263;48.160;11.452;2022-09-03T22:43:40;13.80;99.90
30473;DHT22;17263;48.160;11.452;2022-09-03T22:46:38;13.80;99.90
30473;DHT22;17263;48.160;11.452;2022-09-03T22:52:45;13.80;99.90